TimeCST,TemperatureF,Dew PointF,Humidity,Sea Level PressureIn,VisibilityMPH,Wind Direction,Wind SpeedMPH,Gust SpeedMPH,PrecipitationIn,Events,Conditions,WindDirDegrees,DateUTC
12:53 AM,26.1,21.9,84,30.53,10.0,Calm,Calm,-,N/A,,Clear,0,2013-01-18 06:53:00
1:53 AM,26.1,21.9,84,30.53,10.0,Calm,Calm,-,N/A,,Clear,0,2013-01-18 07:53:00
2:53 AM,25.0,21.9,88,30.53,10.0,Calm,Calm,-,N/A,,Clear,0,2013-01-18 08:53:00
3:53 AM,25.0,21.9,88,30.51,10.0,Calm,Calm,-,N/A,,Clear,0,2013-01-18 09:53:00
4:53 AM,25.0,21.9,88,30.50,10.0,Calm,Calm,-,N/A,,Clear,0,2013-01-18 10:53:00
5:53 AM,24.1,21.0,88,30.48,10.0,Calm,Calm,-,N/A,,Clear,0,2013-01-18 11:53:00
6:53 AM,24.1,19.9,84,30.48,10.0,Calm,Calm,-,N/A,,Clear,0,2013-01-18 12:53:00
7:53 AM,24.1,21.0,88,30.48,10.0,Calm,Calm,-,N/A,,Clear,0,2013-01-18 13:53:00
8:53 AM,35.1,28.0,76,30.48,10.0,Calm,Calm,-,N/A,,Clear,0,2013-01-18 14:53:00
9:53 AM,45.0,30.0,56,30.48,10.0,SSW,12.7,19.6,N/A,,Clear,200,2013-01-18 15:53:00
10:53 AM,48.0,28.9,48,30.46,10.0,South,11.5,23.0,N/A,,Clear,180,2013-01-18 16:53:00
11:53 AM,52.0,28.0,40,30.41,10.0,South,18.4,25.3,N/A,,Clear,190,2013-01-18 17:53:00
12:53 PM,55.0,27.0,34,30.37,10.0,South,18.4,24.2,N/A,,Clear,190,2013-01-18 18:53:00
1:53 PM,57.0,28.0,33,30.33,10.0,South,12.7,20.7,N/A,,Clear,190,2013-01-18 19:53:00
2:53 PM,57.9,27.0,31,30.30,10.0,South,19.6,24.2,N/A,,Clear,190,2013-01-18 20:53:00
3:53 PM,57.9,28.0,32,30.28,10.0,SSW,15.0,19.6,N/A,,Clear,200,2013-01-18 21:53:00
4:53 PM,57.0,28.0,33,30.27,10.0,South,13.8,-,N/A,,Clear,190,2013-01-18 22:53:00
5:53 PM,53.1,28.0,38,30.26,10.0,South,9.2,-,N/A,,Clear,180,2013-01-18 23:53:00
6:53 PM,51.1,28.9,43,30.26,10.0,South,8.1,-,N/A,,Clear,180,2013-01-19 00:53:00
7:53 PM,48.9,28.9,46,30.25,10.0,SSE,5.8,-,N/A,,Clear,160,2013-01-19 01:53:00
8:53 PM,45.0,28.9,53,30.25,10.0,South,4.6,-,N/A,,Clear,190,2013-01-19 02:53:00
9:53 PM,41.0,28.9,62,30.25,10.0,Calm,Calm,-,N/A,,Clear,0,2013-01-19 03:53:00
10:53 PM,36.0,28.0,73,30.24,10.0,Calm,Calm,-,N/A,,Clear,0,2013-01-19 04:53:00
11:53 PM,35.1,28.0,76,30.22,10.0,Calm,Calm,-,N/A,,Clear,0,2013-01-19 05:53:00